sensor_id;sensor_type;location;lat;lon;timestamp;temperature;humidity
68746;SHT31;66104;45.456;11.064;2023-03-05T00:01:23;9.11;59.64
68746;SHT31;66104;45.456;11.064;2023-03-05T00:04:03;9.10;59.70
68746;SHT31;66104;45.456;11.064;2023-03-05T00:06:45;9.10;59.68
68746;SHT31;66104;45.456;11.064;2023-03-05T00:09:22;9.09;59.70
68746;SHT31;66104;45.456;11.064;2023-03-05T00:11:59;9.07;59.60
68746;SHT31;66104;45.456;11.064;2023-03-05T00:14:38;9.05;59.59
68746;SHT31;66104;45.456;11.064;2023-03-05T00:17:15;9.05;59.58
68746;SHT31;66104;45.456;11.064;2023-03-05T00:19:52;9.06;59.54
68746;SHT31;66104;45.456;11.064;2023-03-05T00:22:32;9.07;59.50
68746;SHT31;66104;45.456;11.064;2023-03-05T00:25:10;9.06;59.43
68746;SHT31;66104;45.456;11.064;2023-03-05T00:27:48;9.06;59.36
68746;SHT31;66104;45.456;11.064;2023-03-05T00:30:24;9.06;59.38
68746;SHT31;66104;45.456;11.064;2023-03-05T00:33:01;9.06;59.33
68746;SHT31;66104;45.456;11.064;2023-03-05T00:35:40;9.06;59.33
68746;SHT31;66104;45.456;11.064;2023-03-05T00:38:17;9.05;59.37
68746;SHT31;66104;45.456;11.064;2023-03-05T00:40:55;9.04;59.28
68746;SHT31;66104;45.456;11.064;2023-03-05T00:43:32;9.06;59.29
68746;SHT31;66104;45.456;11.064;2023-03-05T00:46:08;9.05;59.30
68746;SHT31;66104;45.456;11.064;2023-03-05T00:48:45;9.05;59.30
68746;SHT31;66104;45.456;11.064;2023-03-05T00:51:22;9.04;59.30
68746;SHT31;66104;45.456;11.064;2023-03-05T00:53:59;9.04;59.38
68746;SHT31;66104;45.456;11.064;2023-03-05T00:56:36;9.04;59.42
68746;SHT31;66104;45.456;11.064;2023-03-05T00:59:13;9.04;59.41
68746;SHT31;66104;45.456;11.064;2023-03-05T01:01:50;9.06;59.40
68746;SHT31;66104;45.456;11.064;2023-03-05T01:04:25;9.06;59.41
68746;SHT31;66104;45.456;11.064;2023-03-05T01:07:02;9.07;59.50
68746;SHT31;66104;45.456;11.064;2023-03-05T01:09:38;9.09;59.55
68746;SHT31;66104;45.456;11.064;2023-03-05T01:12:15;9.06;59.65
68746;SHT31;66104;45.456;11.064;2023-03-05T01:14:51;9.05;59.77
68746;SHT31;66104;45.456;11.064;2023-03-05T01:17:27;9.04;60.03
68746;SHT31;66104;45.456;11.064;2023-03-05T01:20:04;9.00;60.74
68746;SHT31;66104;45.456;11.064;2023-03-05T01:22:49;8.92;61.41
68746;SHT31;66104;45.456;11.064;2023-03-05T01:25:26;8.79;62.18
68746;SHT31;66104;45.456;11.064;2023-03-05T01:28:03;8.67;62.66
68746;SHT31;66104;45.456;11.064;2023-03-05T01:30:42;8.49;62.99
68746;SHT31;66104;45.456;11.064;2023-03-05T01:33:18;8.26;63.41
68746;SHT31;66104;45.456;11.064;2023-03-05T01:35:55;8.15;63.96
68746;SHT31;66104;45.456;11.064;2023-03-05T01:38:31;8.10;64.13
68746;SHT31;66104;45.456;11.064;2023-03-05T01:41:07;8.04;64.44
68746;SHT31;66104;45.456;11.064;2023-03-05T01:43:46;8.02;64.72
68746;SHT31;66104;45.456;11.064;2023-03-05T01:46:27;7.98;65.16
68746;SHT31;66104;45.456;11.064;2023-03-05T01:51:59;7.99;65.88
68746;SHT31;66104;45.456;11.064;2023-03-05T01:54:47;7.99;66.08
68746;SHT31;66104;45.456;11.064;2023-03-05T01:57:29;7.97;66.20
68746;SHT31;66104;45.456;11.064;2023-03-05T02:00:12;8.02;66.14
68746;SHT31;66104;45.456;11.064;2023-03-05T02:02:55;8.07;65.91
68746;SHT31;66104;45.456;11.064;2023-03-05T02:05:36;8.07;65.62
68746;SHT31;66104;45.456;11.064;2023-03-05T02:08:14;8.09;65.86
68746;SHT31;66104;45.456;11.064;2023-03-05T02:10:53;8.11;65.89
68746;SHT31;66104;45.456;11.064;2023-03-05T02:13:31;8.10;65.88
68746;SHT31;66104;45.456;11.064;2023-03-05T02:16:10;8.08;65.74
68746;SHT31;66104;45.456;11.064;2023-03-05T02:18:47;8.07;65.69
68746;SHT31;66104;45.456;11.064;2023-03-05T02:21:27;8.05;65.61
68746;SHT31;66104;45.456;11.064;2023-03-05T02:24:11;8.03;65.73
68746;SHT31;66104;45.456;11.064;2023-03-05T02:26:49;8.02;65.70
68746;SHT31;66104;45.456;11.064;2023-03-05T02:29:26;8.03;65.65
68746;SHT31;66104;45.456;11.064;2023-03-05T02:32:06;8.02;65.66
68746;SHT31;66104;45.456;11.064;2023-03-05T02:34:44;8.03;65.54
68746;SHT31;66104;45.456;11.064;2023-03-05T02:37:21;8.01;65.63
68746;SHT31;66104;45.456;11.064;2023-03-05T02:39:58;8.00;65.56
68746;SHT31;66104;45.456;11.064;2023-03-05T02:42:35;8.02;65.50
68746;SHT31;66104;45.456;11.064;2023-03-05T02:45:13;7.99;65.46
68746;SHT31;66104;45.456;11.064;2023-03-05T02:47:48;7.94;65.58
68746;SHT31;66104;45.456;11.064;2023-03-05T02:50:25;7.91;65.69
68746;SHT31;66104;45.456;11.064;2023-03-05T02:53:05;7.94;65.56
68746;SHT31;66104;45.456;11.064;2023-03-05T02:55:44;7.97;65.13
68746;SHT31;66104;45.456;11.064;2023-03-05T02:58:21;7.95;64.90
68746;SHT31;66104;45.456;11.064;2023-03-05T03:00:58;7.98;64.85
68746;SHT31;66104;45.456;11.064;2023-03-05T03:03:36;7.97;64.62
68746;SHT31;66104;45.456;11.064;2023-03-05T03:06:13;7.91;64.61
68746;SHT31;66104;45.456;11.064;2023-03-05T03:08:51;7.86;64.69
68746;SHT31;66104;45.456;11.064;2023-03-05T03:11:28;7.85;64.74
68746;SHT31;66104;45.456;11.064;2023-03-05T03:14:05;7.88;64.70
68746;SHT31;66104;45.456;11.064;2023-03-05T03:16:42;7.89;64.62
68746;SHT31;66104;45.456;11.064;2023-03-05T03:19:19;7.89;64.57
68746;SHT31;66104;45.456;11.064;2023-03-05T03:21:56;7.88;64.50
68746;SHT31;66104;45.456;11.064;2023-03-05T03:24:33;7.85;64.49
68746;SHT31;66104;45.456;11.064;2023-03-05T03:27:11;7.83;64.56
68746;SHT31;66104;45.456;11.064;2023-03-05T03:29:48;7.80;64.58
68746;SHT31;66104;45.456;11.064;2023-03-05T03:32:25;7.79;64.53
68746;SHT31;66104;45.456;11.064;2023-03-05T03:35:02;7.75;64.58
68746;SHT31;66104;45.456;11.064;2023-03-05T03:37:43;7.73;64.60
68746;SHT31;66104;45.456;11.064;2023-03-05T03:40:19;7.73;64.65
68746;SHT31;66104;45.456;11.064;2023-03-05T03:42:57;7.75;64.61
68746;SHT31;66104;45.456;11.064;2023-03-05T03:45:33;7.76;64.62
68746;SHT31;66104;45.456;11.064;2023-03-05T03:48:13;7.77;64.59
68746;SHT31;66104;45.456;11.064;2023-03-05T03:50:50;7.78;64.60
68746;SHT31;66104;45.456;11.064;2023-03-05T03:53:27;7.78;64.56
68746;SHT31;66104;45.456;11.064;2023-03-05T03:56:04;7.80;64.40
68746;SHT31;66104;45.456;11.064;2023-03-05T03:58:42;7.82;64.33
68746;SHT31;66104;45.456;11.064;2023-03-05T04:01:20;7.85;64.28
68746;SHT31;66104;45.456;11.064;2023-03-05T04:03:58;7.85;64.21
68746;SHT31;66104;45.456;11.064;2023-03-05T04:06:34;7.86;64.21
68746;SHT31;66104;45.456;11.064;2023-03-05T04:09:12;7.89;64.16
68746;SHT31;66104;45.456;11.064;2023-03-05T04:11:49;7.89;64.10
68746;SHT31;66104;45.456;11.064;2023-03-05T04:14:25;7.88;64.05
68746;SHT31;66104;45.456;11.064;2023-03-05T04:17:01;7.88;63.96
68746;SHT31;66104;45.456;11.064;2023-03-05T04:19:39;7.90;63.82
68746;SHT31;66104;45.456;11.064;2023-03-05T04:22:16;7.89;63.80
68746;SHT31;66104;45.456;11.064;2023-03-05T04:24:52;7.87;63.80
68746;SHT31;66104;45.456;11.064;2023-03-05T04:27:29;7.84;63.80
68746;SHT31;66104;45.456;11.064;2023-03-05T04:30:10;7.84;63.78
68746;SHT31;66104;45.456;11.064;2023-03-05T04:32:48;7.85;63.74
68746;SHT31;66104;45.456;11.064;2023-03-05T04:35:26;7.84;63.73
68746;SHT31;66104;45.456;11.064;2023-03-05T04:38:03;7.83;63.70
68746;SHT31;66104;45.456;11.064;2023-03-05T04:40:40;7.81;63.72
68746;SHT31;66104;45.456;11.064;2023-03-05T04:43:18;7.84;63.61
68746;SHT31;66104;45.456;11.064;2023-03-05T04:45:54;7.88;63.46
68746;SHT31;66104;45.456;11.064;2023-03-05T04:48:30;7.89;63.34
68746;SHT31;66104;45.456;11.064;2023-03-05T04:51:07;7.89;63.31
68746;SHT31;66104;45.456;11.064;2023-03-05T04:53:44;7.86;63.39
68746;SHT31;66104;45.456;11.064;2023-03-05T04:56:21;7.85;63.39
68746;SHT31;66104;45.456;11.064;2023-03-05T04:58:57;7.84;63.40
68746;SHT31;66104;45.456;11.064;2023-03-05T05:01:34;7.82;63.40
68746;SHT31;66104;45.456;11.064;2023-03-05T05:04:10;7.80;63.40
68746;SHT31;66104;45.456;11.064;2023-03-05T05:06:48;7.78;63.49
68746;SHT31;66104;45.456;11.064;2023-03-05T05:09:27;7.77;63.51
68746;SHT31;66104;45.456;11.064;2023-03-05T05:12:05;7.76;63.61
68746;SHT31;66104;45.456;11.064;2023-03-05T05:14:43;7.75;63.60
68746;SHT31;66104;45.456;11.064;2023-03-05T05:17:20;7.71;63.62
68746;SHT31;66104;45.456;11.064;2023-03-05T05:19:59;7.68;63.61
68746;SHT31;66104;45.456;11.064;2023-03-05T05:22:36;7.65;63.60
68746;SHT31;66104;45.456;11.064;2023-03-05T05:25:12;7.62;63.66
68746;SHT31;66104;45.456;11.064;2023-03-05T05:27:50;7.59;63.82
68746;SHT31;66104;45.456;11.064;2023-03-05T05:30:27;7.54;63.89
68746;SHT31;66104;45.456;11.064;2023-03-05T05:33:04;7.51;64.01
68746;SHT31;66104;45.456;11.064;2023-03-05T05:35:41;7.49;64.10
68746;SHT31;66104;45.456;11.064;2023-03-05T05:38:18;7.49;64.14
68746;SHT31;66104;45.456;11.064;2023-03-05T05:40:57;7.51;64.26
68746;SHT31;66104;45.456;11.064;2023-03-05T05:43:40;7.53;64.30
68746;SHT31;66104;45.456;11.064;2023-03-05T05:46:17;7.56;64.23
68746;SHT31;66104;45.456;11.064;2023-03-05T05:48:55;7.54;64.13
68746;SHT31;66104;45.456;11.064;2023-03-05T05:51:31;7.48;63.84
68746;SHT31;66104;45.456;11.064;2023-03-05T05:54:09;7.39;63.63
68746;SHT31;66104;45.456;11.064;2023-03-05T05:56:47;7.22;63.12
68746;SHT31;66104;45.456;11.064;2023-03-05T05:59:24;6.99;63.33
68746;SHT31;66104;45.456;11.064;2023-03-05T06:02:01;6.76;64.12
68746;SHT31;66104;45.456;11.064;2023-03-05T06:04:39;6.58;64.80
68746;SHT31;66104;45.456;11.064;2023-03-05T06:07:16;6.44;65.64
68746;SHT31;66104;45.456;11.064;2023-03-05T06:09:52;6.34;66.40
68746;SHT31;66104;45.456;11.064;2023-03-05T06:12:29;6.26;66.78
68746;SHT31;66104;45.456;11.064;2023-03-05T06:15:08;6.25;67.27
68746;SHT31;66104;45.456;11.064;2023-03-05T06:17:46;6.28;67.68
68746;SHT31;66104;45.456;11.064;2023-03-05T06:20:24;6.34;68.03
68746;SHT31;66104;45.456;11.064;2023-03-05T06:23:01;6.39;68.51
68746;SHT31;66104;45.456;11.064;2023-03-05T06:25:38;6.45;68.74
68746;SHT31;66104;45.456;11.064;2023-03-05T06:28:15;6.51;68.96
68746;SHT31;66104;45.456;11.064;2023-03-05T06:31:02;6.56;69.03
68746;SHT31;66104;45.456;11.064;2023-03-05T06:33:42;6.64;69.04
68746;SHT31;66104;45.456;11.064;2023-03-05T06:36:20;6.76;68.85
68746;SHT31;66104;45.456;11.064;2023-03-05T06:38:56;6.89;68.70
68746;SHT31;66104;45.456;11.064;2023-03-05T06:41:35;6.98;68.60
68746;SHT31;66104;45.456;11.064;2023-03-05T06:44:12;7.08;68.41
68746;SHT31;66104;45.456;11.064;2023-03-05T06:46:49;7.19;68.11
68746;SHT31;66104;45.456;11.064;2023-03-05T06:49:25;7.30;67.89
68746;SHT31;66104;45.456;11.064;2023-03-05T06:52:03;7.42;67.44
68746;SHT31;66104;45.456;11.064;2023-03-05T06:54:40;7.55;67.03
68746;SHT31;66104;45.456;11.064;2023-03-05T06:57:17;7.68;66.92
68746;SHT31;66104;45.456;11.064;2023-03-05T06:59:54;7.78;66.62
68746;SHT31;66104;45.456;11.064;2023-03-05T07:02:35;7.89;66.33
68746;SHT31;66104;45.456;11.064;2023-03-05T07:05:12;8.00;66.18
68746;SHT31;66104;45.456;11.064;2023-03-05T07:07:49;8.08;66.14
68746;SHT31;66104;45.456;11.064;2023-03-05T07:10:26;8.15;66.23
68746;SHT31;66104;45.456;11.064;2023-03-05T07:13:03;8.23;66.30
68746;SHT31;66104;45.456;11.064;2023-03-05T07:15:40;8.30;66.41
68746;SHT31;66104;45.456;11.064;2023-03-05T07:18:18;8.33;66.04
68746;SHT31;66104;45.456;11.064;2023-03-05T07:20:55;8.37;65.84
68746;SHT31;66104;45.456;11.064;2023-03-05T07:23:37;8.39;65.71
68746;SHT31;66104;45.456;11.064;2023-03-05T07:26:14;8.44;65.71
68746;SHT31;66104;45.456;11.064;2023-03-05T07:28:51;8.49;65.53
68746;SHT31;66104;45.456;11.064;2023-03-05T07:31:28;8.49;65.88
68746;SHT31;66104;45.456;11.064;2023-03-05T07:34:05;8.40;66.20
68746;SHT31;66104;45.456;11.064;2023-03-05T07:36:43;8.27;66.61
68746;SHT31;66104;45.456;11.064;2023-03-05T07:39:23;8.15;67.46
68746;SHT31;66104;45.456;11.064;2023-03-05T07:42:00;8.02;68.18
68746;SHT31;66104;45.456;11.064;2023-03-05T07:44:48;8.01;68.44
68746;SHT31;66104;45.456;11.064;2023-03-05T07:47:25;8.06;68.45
68746;SHT31;66104;45.456;11.064;2023-03-05T07:50:03;8.19;68.23
68746;SHT31;66104;45.456;11.064;2023-03-05T07:52:44;8.31;67.89
68746;SHT31;66104;45.456;11.064;2023-03-05T07:55:21;8.45;67.65
68746;SHT31;66104;45.456;11.064;2023-03-05T07:57:58;8.59;67.57
68746;SHT31;66104;45.456;11.064;2023-03-05T08:00:34;8.75;67.47
68746;SHT31;66104;45.456;11.064;2023-03-05T08:03:10;8.91;67.29
68746;SHT31;66104;45.456;11.064;2023-03-05T08:05:46;9.03;67.17
68746;SHT31;66104;45.456;11.064;2023-03-05T08:08:23;9.14;66.73
68746;SHT31;66104;45.456;11.064;2023-03-05T08:11:03;9.27;66.42
68746;SHT31;66104;45.456;11.064;2023-03-05T08:13:44;9.43;66.33
68746;SHT31;66104;45.456;11.064;2023-03-05T08:16:21;9.55;66.24
68746;SHT31;66104;45.456;11.064;2023-03-05T08:18:58;9.63;65.84
68746;SHT31;66104;45.456;11.064;2023-03-05T08:21:35;9.71;65.29
68746;SHT31;66104;45.456;11.064;2023-03-05T08:24:13;9.80;64.61
68746;SHT31;66104;45.456;11.064;2023-03-05T08:26:50;9.87;64.47
68746;SHT31;66104;45.456;11.064;2023-03-05T08:29:27;9.95;64.47
68746;SHT31;66104;45.456;11.064;2023-03-05T08:32:05;10.03;64.06
68746;SHT31;66104;45.456;11.064;2023-03-05T08:34:42;10.11;63.75
68746;SHT31;66104;45.456;11.064;2023-03-05T08:37:19;10.21;63.69
68746;SHT31;66104;45.456;11.064;2023-03-05T08:39:55;10.32;63.45
68746;SHT31;66104;45.456;11.064;2023-03-05T08:42:32;10.43;63.24
68746;SHT31;66104;45.456;11.064;2023-03-05T08:45:11;10.57;63.03
68746;SHT31;66104;45.456;11.064;2023-03-05T08:47:49;10.69;62.74
68746;SHT31;66104;45.456;11.064;2023-03-05T08:50:26;10.79;62.21
68746;SHT31;66104;45.456;11.064;2023-03-05T08:53:06;10.90;61.83
68746;SHT31;66104;45.456;11.064;2023-03-05T08:55:44;11.02;61.45
68746;SHT31;66104;45.456;11.064;2023-03-05T08:58:28;11.12;61.14
68746;SHT31;66104;45.456;11.064;2023-03-05T09:01:05;11.21;60.78
68746;SHT31;66104;45.456;11.064;2023-03-05T09:03:43;11.30;60.47
68746;SHT31;66104;45.456;11.064;2023-03-05T09:06:21;11.40;60.12
68746;SHT31;66104;45.456;11.064;2023-03-05T09:08:58;11.51;60.04
68746;SHT31;66104;45.456;11.064;2023-03-05T09:11:35;11.60;59.85
68746;SHT31;66104;45.456;11.064;2023-03-05T09:14:12;11.69;59.72
68746;SHT31;66104;45.456;11.064;2023-03-05T09:16:49;11.79;59.10
68746;SHT31;66104;45.456;11.064;2023-03-05T09:19:26;11.86;58.82
68746;SHT31;66104;45.456;11.064;2023-03-05T09:22:02;11.94;58.55
68746;SHT31;66104;45.456;11.064;2023-03-05T09:24:40;12.04;58.32
68746;SHT31;66104;45.456;11.064;2023-03-05T09:27:17;12.10;58.30
68746;SHT31;66104;45.456;11.064;2023-03-05T09:29:54;12.19;58.27
68746;SHT31;66104;45.456;11.064;2023-03-05T09:32:31;12.27;57.97
68746;SHT31;66104;45.456;11.064;2023-03-05T09:35:10;12.35;57.96
68746;SHT31;66104;45.456;11.064;2023-03-05T09:37:47;12.41;57.89
68746;SHT31;66104;45.456;11.064;2023-03-05T09:40:24;12.49;57.94
68746;SHT31;66104;45.456;11.064;2023-03-05T09:43:18;12.54;57.68
68746;SHT31;66104;45.456;11.064;2023-03-05T09:46:13;12.59;57.72
68746;SHT31;66104;45.456;11.064;2023-03-05T09:49:06;12.62;57.75
68746;SHT31;66104;45.456;11.064;2023-03-05T09:51:54;12.67;57.20
68746;SHT31;66104;45.456;11.064;2023-03-05T09:54:44;12.71;56.74
68746;SHT31;66104;45.456;11.064;2023-03-05T09:57:30;12.77;57.05
68746;SHT31;66104;45.456;11.064;2023-03-05T10:00:25;12.85;57.05
68746;SHT31;66104;45.456;11.064;2023-03-05T10:03:15;12.90;57.19
68746;SHT31;66104;45.456;11.064;2023-03-05T10:06:03;12.96;56.99
68746;SHT31;66104;45.456;11.064;2023-03-05T10:08:55;13.04;56.91
68746;SHT31;66104;45.456;11.064;2023-03-05T10:11:39;13.12;56.93
68746;SHT31;66104;45.456;11.064;2023-03-05T10:14:27;13.21;56.86
68746;SHT31;66104;45.456;11.064;2023-03-05T10:17:19;13.28;56.58
68746;SHT31;66104;45.456;11.064;2023-03-05T10:26:33;13.43;54.87
68746;SHT31;66104;45.456;11.064;2023-03-05T10:29:38;13.51;54.65
68746;SHT31;66104;45.456;11.064;2023-03-05T10:32:43;13.55;55.08
68746;SHT31;66104;45.456;11.064;2023-03-05T10:38:47;13.69;53.32
68746;SHT31;66104;45.456;11.064;2023-03-05T10:41:56;13.77;53.17
68746;SHT31;66104;45.456;11.064;2023-03-05T10:44:47;13.88;53.13
68746;SHT31;66104;45.456;11.064;2023-03-05T10:47:27;13.94;53.30
68746;SHT31;66104;45.456;11.064;2023-03-05T10:50:16;14.00;53.16
68746;SHT31;66104;45.456;11.064;2023-03-05T10:53:00;14.07;52.96
68746;SHT31;66104;45.456;11.064;2023-03-05T10:55:49;14.13;52.69
68746;SHT31;66104;45.456;11.064;2023-03-05T10:58:26;14.16;52.71
68746;SHT31;66104;45.456;11.064;2023-03-05T11:01:03;14.19;52.87
68746;SHT31;66104;45.456;11.064;2023-03-05T11:03:53;14.26;52.40
68746;SHT31;66104;45.456;11.064;2023-03-05T11:06:32;14.33;52.09
68746;SHT31;66104;45.456;11.064;2023-03-05T11:09:17;14.35;51.59
68746;SHT31;66104;45.456;11.064;2023-03-05T11:15:04;14.44;51.61
68746;SHT31;66104;45.456;11.064;2023-03-05T11:20:53;14.63;51.31
68746;SHT31;66104;45.456;11.064;2023-03-05T11:26:49;14.76;51.39
68746;SHT31;66104;45.456;11.064;2023-03-05T11:29:30;14.85;51.21
68746;SHT31;66104;45.456;11.064;2023-03-05T11:32:19;14.95;51.16
68746;SHT31;66104;45.456;11.064;2023-03-05T11:34:59;15.01;51.04
68746;SHT31;66104;45.456;11.064;2023-03-05T11:38:03;15.08;50.86
68746;SHT31;66104;45.456;11.064;2023-03-05T11:40:48;15.10;50.47
68746;SHT31;66104;45.456;11.064;2023-03-05T11:43:25;15.07;50.81
68746;SHT31;66104;45.456;11.064;2023-03-05T11:46:06;15.12;50.22
68746;SHT31;66104;45.456;11.064;2023-03-05T11:48:46;15.20;50.13
68746;SHT31;66104;45.456;11.064;2023-03-05T11:51:26;15.30;49.75
68746;SHT31;66104;45.456;11.064;2023-03-05T11:54:16;15.37;49.34
68746;SHT31;66104;45.456;11.064;2023-03-05T11:57:04;15.39;49.62
68746;SHT31;66104;45.456;11.064;2023-03-05T11:59:45;15.41;49.25
68746;SHT31;66104;45.456;11.064;2023-03-05T12:02:23;15.43;49.38
68746;SHT31;66104;45.456;11.064;2023-03-05T12:05:00;15.49;49.65
68746;SHT31;66104;45.456;11.064;2023-03-05T12:07:38;15.57;49.19
68746;SHT31;66104;45.456;11.064;2023-03-05T12:10:21;15.63;49.21
68746;SHT31;66104;45.456;11.064;2023-03-05T12:12:58;15.69;49.42
68746;SHT31;66104;45.456;11.064;2023-03-05T12:15:57;15.77;49.23
68746;SHT31;66104;45.456;11.064;2023-03-05T12:18:45;15.84;48.91
68746;SHT31;66104;45.456;11.064;2023-03-05T12:21:52;15.90;48.56
68746;SHT31;66104;45.456;11.064;2023-03-05T12:24:36;15.93;48.45
68746;SHT31;66104;45.456;11.064;2023-03-05T12:27:13;15.98;48.56
68746;SHT31;66104;45.456;11.064;2023-03-05T12:30:08;16.02;48.65
68746;SHT31;66104;45.456;11.064;2023-03-05T12:33:30;16.08;47.91
68746;SHT31;66104;45.456;11.064;2023-03-05T12:42:46;16.20;47.96
68746;SHT31;66104;45.456;11.064;2023-03-05T12:45:29;16.24;47.49
68746;SHT31;66104;45.456;11.064;2023-03-05T12:51:26;16.29;47.61
68746;SHT31;66104;45.456;11.064;2023-03-05T12:54:26;16.28;47.59
68746;SHT31;66104;45.456;11.064;2023-03-05T12:57:12;16.28;47.50
68746;SHT31;66104;45.456;11.064;2023-03-05T12:59:52;16.25;47.30
68746;SHT31;66104;45.456;11.064;2023-03-05T13:02:41;16.24;47.63
68746;SHT31;66104;45.456;11.064;2023-03-05T13:05:22;16.28;47.39
68746;SHT31;66104;45.456;11.064;2023-03-05T13:08:10;16.29;47.22
68746;SHT31;66104;45.456;11.064;2023-03-05T13:10:53;16.30;47.66
68746;SHT31;66104;45.456;11.064;2023-03-05T13:13:36;16.34;47.85
68746;SHT31;66104;45.456;11.064;2023-03-05T13:16:17;16.39;47.72
68746;SHT31;66104;45.456;11.064;2023-03-05T13:18:57;16.42;47.47
68746;SHT31;66104;45.456;11.064;2023-03-05T13:21:35;16.42;47.45
68746;SHT31;66104;45.456;11.064;2023-03-05T13:24:15;16.47;47.56
68746;SHT31;66104;45.456;11.064;2023-03-05T13:26:52;16.51;47.61
68746;SHT31;66104;45.456;11.064;2023-03-05T13:29:29;16.53;47.40
68746;SHT31;66104;45.456;11.064;2023-03-05T13:32:20;16.58;47.37
68746;SHT31;66104;45.456;11.064;2023-03-05T13:35:00;16.62;47.24
68746;SHT31;66104;45.456;11.064;2023-03-05T13:37:45;16.63;47.10
68746;SHT31;66104;45.456;11.064;2023-03-05T13:40:24;16.64;47.00
68746;SHT31;66104;45.456;11.064;2023-03-05T13:43:09;16.64;47.19
68746;SHT31;66104;45.456;11.064;2023-03-05T13:45:53;16.66;47.24
68746;SHT31;66104;45.456;11.064;2023-03-05T13:48:30;16.66;47.17
68746;SHT31;66104;45.456;11.064;2023-03-05T13:51:08;16.66;47.01
68746;SHT31;66104;45.456;11.064;2023-03-05T13:53:43;16.62;47.04
68746;SHT31;66104;45.456;11.064;2023-03-05T13:56:21;16.58;47.24
68746;SHT31;66104;45.456;11.064;2023-03-05T13:58:58;16.58;47.19
68746;SHT31;66104;45.456;11.064;2023-03-05T14:01:34;16.63;47.28
68746;SHT31;66104;45.456;11.064;2023-03-05T14:04:20;16.71;47.25
68746;SHT31;66104;45.456;11.064;2023-03-05T14:06:59;16.78;47.28
68746;SHT31;66104;45.456;11.064;2023-03-05T14:09:45;16.83;47.24
68746;SHT31;66104;45.456;11.064;2023-03-05T14:12:23;16.87;46.70
68746;SHT31;66104;45.456;11.064;2023-03-05T14:15:15;16.89;46.50
68746;SHT31;66104;45.456;11.064;2023-03-05T14:18:11;16.90;46.46
68746;SHT31;66104;45.456;11.064;2023-03-05T14:23:49;16.90;46.57
68746;SHT31;66104;45.456;11.064;2023-03-05T14:26:28;16.88;46.54
68746;SHT31;66104;45.456;11.064;2023-03-05T14:29:13;16.90;46.60
68746;SHT31;66104;45.456;11.064;2023-03-05T14:31:52;16.91;46.73
68746;SHT31;66104;45.456;11.064;2023-03-05T14:34:32;16.89;46.49
68746;SHT31;66104;45.456;11.064;2023-03-05T14:37:17;16.87;46.45
68746;SHT31;66104;45.456;11.064;2023-03-05T14:39:56;16.84;46.52
68746;SHT31;66104;45.456;11.064;2023-03-05T14:42:34;16.78;46.69
68746;SHT31;66104;45.456;11.064;2023-03-05T14:45:26;16.67;46.49
68746;SHT31;66104;45.456;11.064;2023-03-05T14:48:04;16.62;46.34
68746;SHT31;66104;45.456;11.064;2023-03-05T14:50:45;16.59;46.19
68746;SHT31;66104;45.456;11.064;2023-03-05T14:53:25;16.57;46.17
68746;SHT31;66104;45.456;11.064;2023-03-05T14:56:10;16.56;46.08
68746;SHT31;66104;45.456;11.064;2023-03-05T14:58:55;16.52;46.11
68746;SHT31;66104;45.456;11.064;2023-03-05T15:01:31;16.49;46.35
68746;SHT31;66104;45.456;11.064;2023-03-05T15:04:08;16.44;46.41
68746;SHT31;66104;45.456;11.064;2023-03-05T15:06:47;16.40;46.44
68746;SHT31;66104;45.456;11.064;2023-03-05T15:09:24;16.36;46.22
68746;SHT31;66104;45.456;11.064;2023-03-05T15:12:01;16.31;46.38
68746;SHT31;66104;45.456;11.064;2023-03-05T15:14:43;16.28;46.60
68746;SHT31;66104;45.456;11.064;2023-03-05T15:17:21;16.25;46.80
68746;SHT31;66104;45.456;11.064;2023-03-05T15:20:05;16.24;47.16
68746;SHT31;66104;45.456;11.064;2023-03-05T15:22:47;16.23;47.31
68746;SHT31;66104;45.456;11.064;2023-03-05T15:25:23;16.22;47.11
68746;SHT31;66104;45.456;11.064;2023-03-05T15:28:02;16.21;46.90
68746;SHT31;66104;45.456;11.064;2023-03-05T15:30:41;16.21;46.81
68746;SHT31;66104;45.456;11.064;2023-03-05T15:33:19;16.18;46.80
68746;SHT31;66104;45.456;11.064;2023-03-05T15:35:55;16.15;46.94
68746;SHT31;66104;45.456;11.064;2023-03-05T15:38:31;16.11;46.87
68746;SHT31;66104;45.456;11.064;2023-03-05T15:41:09;16.08;46.95
68746;SHT31;66104;45.456;11.064;2023-03-05T15:43:45;16.04;47.16
68746;SHT31;66104;45.456;11.064;2023-03-05T15:46:22;16.02;47.28
68746;SHT31;66104;45.456;11.064;2023-03-05T15:48:58;15.99;47.39
68746;SHT31;66104;45.456;11.064;2023-03-05T15:51:35;15.97;47.62
68746;SHT31;66104;45.456;11.064;2023-03-05T15:54:11;15.91;47.89
68746;SHT31;66104;45.456;11.064;2023-03-05T15:56:48;15.88;48.17
68746;SHT31;66104;45.456;11.064;2023-03-05T15:59:25;15.82;48.44
68746;SHT31;66104;45.456;11.064;2023-03-05T16:02:01;15.77;48.64
68746;SHT31;66104;45.456;11.064;2023-03-05T16:04:39;15.73;48.93
68746;SHT31;66104;45.456;11.064;2023-03-05T16:07:16;15.68;49.11
68746;SHT31;66104;45.456;11.064;2023-03-05T16:09:53;15.62;49.29
68746;SHT31;66104;45.456;11.064;2023-03-05T16:12:32;15.55;49.46
68746;SHT31;66104;45.456;11.064;2023-03-05T16:15:12;15.50;49.75
68746;SHT31;66104;45.456;11.064;2023-03-05T16:17:53;15.44;49.84
68746;SHT31;66104;45.456;11.064;2023-03-05T16:20:33;15.36;50.01
68746;SHT31;66104;45.456;11.064;2023-03-05T16:23:10;15.30;50.36
68746;SHT31;66104;45.456;11.064;2023-03-05T16:25:47;15.26;50.55
68746;SHT31;66104;45.456;11.064;2023-03-05T16:28:26;15.22;50.74
68746;SHT31;66104;45.456;11.064;2023-03-05T16:31:03;15.16;50.81
68746;SHT31;66104;45.456;11.064;2023-03-05T16:33:40;15.11;50.84
68746;SHT31;66104;45.456;11.064;2023-03-05T16:36:18;15.08;50.95
68746;SHT31;66104;45.456;11.064;2023-03-05T16:38:57;15.05;51.10
68746;SHT31;66104;45.456;11.064;2023-03-05T16:41:34;15.03;51.22
68746;SHT31;66104;45.456;11.064;2023-03-05T16:44:11;14.99;51.32
68746;SHT31;66104;45.456;11.064;2023-03-05T16:46:48;14.94;51.45
68746;SHT31;66104;45.456;11.064;2023-03-05T16:49:26;14.88;51.66
68746;SHT31;66104;45.456;11.064;2023-03-05T16:52:03;14.85;51.71
68746;SHT31;66104;45.456;11.064;2023-03-05T16:54:46;14.78;51.81
68746;SHT31;66104;45.456;11.064;2023-03-05T16:57:23;14.72;51.89
68746;SHT31;66104;45.456;11.064;2023-03-05T17:00:00;14.68;51.99
68746;SHT31;66104;45.456;11.064;2023-03-05T17:02:44;14.62;52.13
68746;SHT31;66104;45.456;11.064;2023-03-05T17:05:21;14.60;52.31
68746;SHT31;66104;45.456;11.064;2023-03-05T17:07:57;14.58;52.36
68746;SHT31;66104;45.456;11.064;2023-03-05T17:10:34;14.51;52.71
68746;SHT31;66104;45.456;11.064;2023-03-05T17:13:12;14.42;52.95
68746;SHT31;66104;45.456;11.064;2023-03-05T17:15:48;14.40;53.00